sensor_id;sensor_type;location;lat;lon;timestamp;temperature;humidity
53310;DHT22;39197;53.200;5.792;2023-02-28T00:00:32;5.30;99.90
53310;DHT22;39197;53.200;5.792;2023-02-28T00:02:58;5.30;99.90
53310;DHT22;39197;53.200;5.792;2023-02-28T00:05:25;5.30;99.90
53310;DHT22;39197;53.200;5.792;2023-02-28T00:07:51;5.30;99.90
53310;DHT22;39197;53.200;5.792;2023-02-28T00:10:19;5.30;99.90
53310;DHT22;39197;53.200;5.792;2023-02-28T00:12:49;5.20;99.90
53310;DHT22;39197;53.200;5.792;2023-02-28T00:15:16;5.20;99.90
53310;DHT22;39197;53.200;5.792;2023-02-28T00:17:42;5.20;99.90
53310;DHT22;39197;53.200;5.792;2023-02-28T00:20:09;5.20;99.90
53310;DHT22;39197;53.200;5.792;2023-02-28T00:22:37;5.20;99.90
53310;DHT22;39197;53.200;5.792;2023-02-28T00:25:04;5.20;99.90
53310;DHT22;39197;53.200;5.792;2023-02-28T00:27:30;5.20;99.90
53310;DHT22;39197;53.200;5.792;2023-02-28T00:29:56;5.20;99.90
53310;DHT22;39197;53.200;5.792;2023-02-28T00:32:21;5.20;99.90
53310;DHT22;39197;53.200;5.792;2023-02-28T00:34:47;5.20;99.90
53310;DHT22;39197;53.200;5.792;2023-02-28T00:37:12;5.20;99.90
53310;DHT22;39197;53.200;5.792;2023-02-28T00:39:39;5.20;99.90
53310;DHT22;39197;53.200;5.792;2023-02-28T00:42:05;5.20;99.90
53310;DHT22;39197;53.200;5.792;2023-02-28T00:44:31;5.20;99.90
53310;DHT22;39197;53.200;5.792;2023-02-28T00:46:58;5.20;99.90
53310;DHT22;39197;53.200;5.792;2023-02-28T00:49:24;5.10;99.90
53310;DHT22;39197;53.200;5.792;2023-02-28T00:51:50;5.10;99.90
53310;DHT22;39197;53.200;5.792;2023-02-28T00:54:18;5.10;99.90
53310;DHT22;39197;53.200;5.792;2023-02-28T00:56:44;5.10;99.90
53310;DHT22;39197;53.200;5.792;2023-02-28T00:59:12;5.20;99.90
53310;DHT22;39197;53.200;5.792;2023-02-28T01:01:38;5.20;99.90
53310;DHT22;39197;53.200;5.792;2023-02-28T01:04:04;5.20;99.90
53310;DHT22;39197;53.200;5.792;2023-02-28T01:06:30;5.20;99.90
53310;DHT22;39197;53.200;5.792;2023-02-28T01:08:58;5.10;99.90
53310;DHT22;39197;53.200;5.792;2023-02-28T01:11:24;5.20;99.90
53310;DHT22;39197;53.200;5.792;2023-02-28T01:13:50;5.10;99.90
53310;DHT22;39197;53.200;5.792;2023-02-28T01:16:15;5.10;99.90
53310;DHT22;39197;53.200;5.792;2023-02-28T01:18:41;5.20;99.90
53310;DHT22;39197;53.200;5.792;2023-02-28T01:21:13;5.20;99.90
53310;DHT22;39197;53.200;5.792;2023-02-28T01:23:39;5.20;99.90
53310;DHT22;39197;53.200;5.792;2023-02-28T01:26:11;5.20;99.90
53310;DHT22;39197;53.200;5.792;2023-02-28T01:28:37;5.10;99.90
53310;DHT22;39197;53.200;5.792;2023-02-28T01:31:03;5.20;99.90
53310;DHT22;39197;53.200;5.792;2023-02-28T01:33:28;5.20;99.90
53310;DHT22;39197;53.200;5.792;2023-02-28T01:36:15;5.20;99.90
53310;DHT22;39197;53.200;5.792;2023-02-28T01:38:41;5.20;99.90
53310;DHT22;39197;53.200;5.792;2023-02-28T01:41:07;5.10;99.90
53310;DHT22;39197;53.200;5.792;2023-02-28T01:46:12;5.10;99.90
53310;DHT22;39197;53.200;5.792;2023-02-28T01:49:14;5.20;99.90
53310;DHT22;39197;53.200;5.792;2023-02-28T01:51:50;5.20;99.90
53310;DHT22;39197;53.200;5.792;2023-02-28T01:54:26;5.10;99.90
53310;DHT22;39197;53.200;5.792;2023-02-28T01:56:59;5.10;99.90
53310;DHT22;39197;53.200;5.792;2023-02-28T01:59:38;5.20;99.90
53310;DHT22;39197;53.200;5.792;2023-02-28T02:02:10;5.10;99.90
53310;DHT22;39197;53.200;5.792;2023-02-28T02:04:40;5.20;99.90
53310;DHT22;39197;53.200;5.792;2023-02-28T02:07:08;5.10;99.90
53310;DHT22;39197;53.200;5.792;2023-02-28T02:09:34;5.10;99.90
53310;DHT22;39197;53.200;5.792;2023-02-28T02:12:05;5.10;99.90
53310;DHT22;39197;53.200;5.792;2023-02-28T02:17:14;5.10;99.90
53310;DHT22;39197;53.200;5.792;2023-02-28T02:20:11;5.10;99.90
53310;DHT22;39197;53.200;5.792;2023-02-28T02:28:35;5.10;99.90
53310;DHT22;39197;53.200;5.792;2023-02-28T02:37:38;5.20;99.90
53310;DHT22;39197;53.200;5.792;2023-02-28T02:40:13;5.20;99.90
53310;DHT22;39197;53.200;5.792;2023-02-28T02:43:01;5.20;99.90
53310;DHT22;39197;53.200;5.792;2023-02-28T02:45:43;5.30;99.90
53310;DHT22;39197;53.200;5.792;2023-02-28T02:48:13;5.20;99.90
53310;DHT22;39197;53.200;5.792;2023-02-28T02:50:46;5.30;99.90
53310;DHT22;39197;53.200;5.792;2023-02-28T02:53:17;5.20;99.90
53310;DHT22;39197;53.200;5.792;2023-02-28T02:55:46;5.20;99.90
53310;DHT22;39197;53.200;5.792;2023-02-28T02:58:16;5.30;99.90
53310;DHT22;39197;53.200;5.792;2023-02-28T03:00:47;5.30;99.90
53310;DHT22;39197;53.200;5.792;2023-02-28T03:03:14;5.20;99.90
53310;DHT22;39197;53.200;5.792;2023-02-28T03:05:50;5.20;99.90
53310;DHT22;39197;53.200;5.792;2023-02-28T03:08:16;5.30;99.90
53310;DHT22;39197;53.200;5.792;2023-02-28T03:10:44;5.30;99.90
53310;DHT22;39197;53.200;5.792;2023-02-28T03:14:25;5.30;99.90
53310;DHT22;39197;53.200;5.792;2023-02-28T03:24:55;5.20;99.90
53310;DHT22;39197;53.200;5.792;2023-02-28T03:27:33;5.30;99.90
53310;DHT22;39197;53.200;5.792;2023-02-28T03:31:06;5.30;99.90
53310;DHT22;39197;53.200;5.792;2023-02-28T03:33:08;5.30;99.90
53310;DHT22;39197;53.200;5.792;2023-02-28T03:35:38;5.30;99.90
53310;DHT22;39197;53.200;5.792;2023-02-28T03:38:18;5.30;99.90
53310;DHT22;39197;53.200;5.792;2023-02-28T03:40:49;5.30;99.90
53310;DHT22;39197;53.200;5.792;2023-02-28T03:43:21;5.30;99.90
53310;DHT22;39197;53.200;5.792;2023-02-28T03:45:50;5.30;99.90
53310;DHT22;39197;53.200;5.792;2023-02-28T03:48:28;5.30;99.90
53310;DHT22;39197;53.200;5.792;2023-02-28T03:50:57;5.30;99.90
53310;DHT22;39197;53.200;5.792;2023-02-28T03:53:36;5.30;99.90
53310;DHT22;39197;53.200;5.792;2023-02-28T03:58:54;5.30;99.90
53310;DHT22;39197;53.200;5.792;2023-02-28T04:01:28;5.30;99.90
53310;DHT22;39197;53.200;5.792;2023-02-28T04:03:54;5.40;99.90
53310;DHT22;39197;53.200;5.792;2023-02-28T04:06:22;5.40;99.90
53310;DHT22;39197;53.200;5.792;2023-02-28T04:08:48;5.40;99.90
53310;DHT22;39197;53.200;5.792;2023-02-28T04:11:26;5.30;99.90
53310;DHT22;39197;53.200;5.792;2023-02-28T04:13:53;5.40;99.90
53310;DHT22;39197;53.200;5.792;2023-02-28T04:16:18;5.30;99.90
53310;DHT22;39197;53.200;5.792;2023-02-28T04:18:44;5.30;99.90
53310;DHT22;39197;53.200;5.792;2023-02-28T04:21:10;5.40;99.90
53310;DHT22;39197;53.200;5.792;2023-02-28T04:23:36;5.30;99.90
53310;DHT22;39197;53.200;5.792;2023-02-28T04:26:02;5.40;99.90
53310;DHT22;39197;53.200;5.792;2023-02-28T04:28:29;5.40;99.90
53310;DHT22;39197;53.200;5.792;2023-02-28T04:31:00;5.40;99.90
53310;DHT22;39197;53.200;5.792;2023-02-28T04:33:26;5.40;99.90
53310;DHT22;39197;53.200;5.792;2023-02-28T04:38:38;5.40;99.90
53310;DHT22;39197;53.200;5.792;2023-02-28T04:41:04;5.40;99.90
53310;DHT22;39197;53.200;5.792;2023-02-28T04:43:31;5.40;99.90
53310;DHT22;39197;53.200;5.792;2023-02-28T04:45:58;5.40;99.90
53310;DHT22;39197;53.200;5.792;2023-02-28T04:48:25;5.50;99.90
53310;DHT22;39197;53.200;5.792;2023-02-28T04:50:51;5.40;99.90
53310;DHT22;39197;53.200;5.792;2023-02-28T04:53:17;5.50;99.90
53310;DHT22;39197;53.200;5.792;2023-02-28T04:55:43;5.40;99.90
53310;DHT22;39197;53.200;5.792;2023-02-28T04:58:08;5.50;99.90
53310;DHT22;39197;53.200;5.792;2023-02-28T05:00:34;5.50;99.90
53310;DHT22;39197;53.200;5.792;2023-02-28T05:03:00;5.50;99.90
53310;DHT22;39197;53.200;5.792;2023-02-28T05:05:25;5.50;99.90
53310;DHT22;39197;53.200;5.792;2023-02-28T05:07:51;5.60;99.90
53310;DHT22;39197;53.200;5.792;2023-02-28T05:10:16;5.50;99.90
53310;DHT22;39197;53.200;5.792;2023-02-28T05:12:42;5.50;99.90
53310;DHT22;39197;53.200;5.792;2023-02-28T05:15:12;5.50;99.90
53310;DHT22;39197;53.200;5.792;2023-02-28T05:17:39;5.50;99.90
53310;DHT22;39197;53.200;5.792;2023-02-28T05:20:05;5.50;99.90
53310;DHT22;39197;53.200;5.792;2023-02-28T05:22:31;5.50;99.90
53310;DHT22;39197;53.200;5.792;2023-02-28T05:24:57;5.50;99.90
53310;DHT22;39197;53.200;5.792;2023-02-28T05:27:23;5.50;99.90
53310;DHT22;39197;53.200;5.792;2023-02-28T05:29:48;5.50;99.90
53310;DHT22;39197;53.200;5.792;2023-02-28T05:32:14;5.50;99.90
53310;DHT22;39197;53.200;5.792;2023-02-28T05:34:40;5.60;99.90
53310;DHT22;39197;53.200;5.792;2023-02-28T05:37:10;5.50;99.90
53310;DHT22;39197;53.200;5.792;2023-02-28T05:39:36;5.60;99.90
53310;DHT22;39197;53.200;5.792;2023-02-28T05:42:02;5.50;99.90
53310;DHT22;39197;53.200;5.792;2023-02-28T05:44:28;5.50;99.90
53310;DHT22;39197;53.200;5.792;2023-02-28T05:46:54;5.60;99.90
53310;DHT22;39197;53.200;5.792;2023-02-28T05:49:19;5.60;99.90
53310;DHT22;39197;53.200;5.792;2023-02-28T05:51:45;5.70;99.90
53310;DHT22;39197;53.200;5.792;2023-02-28T05:54:10;5.50;99.90
53310;DHT22;39197;53.200;5.792;2023-02-28T05:56:36;5.60;99.90
53310;DHT22;39197;53.200;5.792;2023-02-28T05:59:04;5.50;99.90
53310;DHT22;39197;53.200;5.792;2023-02-28T06:01:36;5.60;99.90
53310;DHT22;39197;53.200;5.792;2023-02-28T06:04:04;5.60;99.90
53310;DHT22;39197;53.200;5.792;2023-02-28T06:06:30;5.60;99.90
53310;DHT22;39197;53.200;5.792;2023-02-28T06:08:56;5.60;99.90
53310;DHT22;39197;53.200;5.792;2023-02-28T06:11:22;5.70;99.90
53310;DHT22;39197;53.200;5.792;2023-02-28T06:13:54;5.70;99.90
53310;DHT22;39197;53.200;5.792;2023-02-28T06:16:20;5.70;99.90
53310;DHT22;39197;53.200;5.792;2023-02-28T06:18:46;5.70;99.90
53310;DHT22;39197;53.200;5.792;2023-02-28T06:21:12;5.70;99.90
53310;DHT22;39197;53.200;5.792;2023-02-28T06:23:38;5.70;99.90
53310;DHT22;39197;53.200;5.792;2023-02-28T06:26:04;5.60;99.90
53310;DHT22;39197;53.200;5.792;2023-02-28T06:28:30;5.40;99.90
53310;DHT22;39197;53.200;5.792;2023-02-28T06:30:55;5.20;99.90
53310;DHT22;39197;53.200;5.792;2023-02-28T06:33:21;4.90;99.90
53310;DHT22;39197;53.200;5.792;2023-02-28T06:35:49;4.70;99.90
53310;DHT22;39197;53.200;5.792;2023-02-28T06:38:15;4.60;99.90
53310;DHT22;39197;53.200;5.792;2023-02-28T06:40:41;4.30;99.90
53310;DHT22;39197;53.200;5.792;2023-02-28T06:43:06;4.20;99.90
53310;DHT22;39197;53.200;5.792;2023-02-28T06:45:32;4.00;99.90
53310;DHT22;39197;53.200;5.792;2023-02-28T06:47:58;3.80;99.90
53310;DHT22;39197;53.200;5.792;2023-02-28T06:50:25;3.80;99.90
53310;DHT22;39197;53.200;5.792;2023-02-28T06:52:52;3.80;99.90
53310;DHT22;39197;53.200;5.792;2023-02-28T06:55:19;3.70;99.90
53310;DHT22;39197;53.200;5.792;2023-02-28T06:57:45;3.70;99.90
53310;DHT22;39197;53.200;5.792;2023-02-28T07:00:11;3.60;99.90
53310;DHT22;39197;53.200;5.792;2023-02-28T07:02:37;3.50;99.90
53310;DHT22;39197;53.200;5.792;2023-02-28T07:05:04;3.50;99.90
53310;DHT22;39197;53.200;5.792;2023-02-28T07:07:29;3.50;99.90
53310;DHT22;39197;53.200;5.792;2023-02-28T07:09:55;3.40;99.90
53310;DHT22;39197;53.200;5.792;2023-02-28T07:12:22;3.40;99.90
53310;DHT22;39197;53.200;5.792;2023-02-28T07:14:47;3.40;99.90
53310;DHT22;39197;53.200;5.792;2023-02-28T07:17:13;3.30;99.90
53310;DHT22;39197;53.200;5.792;2023-02-28T07:19:39;3.30;99.90
53310;DHT22;39197;53.200;5.792;2023-02-28T07:22:05;3.30;99.90
53310;DHT22;39197;53.200;5.792;2023-02-28T07:24:31;3.20;99.90
53310;DHT22;39197;53.200;5.792;2023-02-28T07:27:00;3.20;99.90
53310;DHT22;39197;53.200;5.792;2023-02-28T07:29:26;3.10;99.90
53310;DHT22;39197;53.200;5.792;2023-02-28T07:31:51;3.10;99.90
53310;DHT22;39197;53.200;5.792;2023-02-28T07:34:19;3.10;99.90
53310;DHT22;39197;53.200;5.792;2023-02-28T07:36:44;3.00;99.90
53310;DHT22;39197;53.200;5.792;2023-02-28T07:39:10;3.00;99.90
53310;DHT22;39197;53.200;5.792;2023-02-28T07:41:36;3.00;99.90
53310;DHT22;39197;53.200;5.792;2023-02-28T07:44:09;2.90;99.90
53310;DHT22;39197;53.200;5.792;2023-02-28T07:46:35;2.90;99.90
53310;DHT22;39197;53.200;5.792;2023-02-28T07:49:02;2.80;99.90
53310;DHT22;39197;53.200;5.792;2023-02-28T07:51:29;2.80;99.90
53310;DHT22;39197;53.200;5.792;2023-02-28T07:53:55;2.70;99.90
53310;DHT22;39197;53.200;5.792;2023-02-28T07:56:20;2.70;99.90
53310;DHT22;39197;53.200;5.792;2023-02-28T07:58:46;2.70;99.90
53310;DHT22;39197;53.200;5.792;2023-02-28T08:01:12;2.70;99.90
53310;DHT22;39197;53.200;5.792;2023-02-28T08:03:38;2.60;99.90
53310;DHT22;39197;53.200;5.792;2023-02-28T08:06:06;2.70;99.90
53310;DHT22;39197;53.200;5.792;2023-02-28T08:08:32;2.60;99.90
53310;DHT22;39197;53.200;5.792;2023-02-28T08:11:02;2.70;99.90
53310;DHT22;39197;53.200;5.792;2023-02-28T08:13:29;2.70;99.90
53310;DHT22;39197;53.200;5.792;2023-02-28T08:15:55;2.70;99.90
53310;DHT22;39197;53.200;5.792;2023-02-28T08:18:21;2.70;99.90
53310;DHT22;39197;53.200;5.792;2023-02-28T08:20:47;2.60;99.90
53310;DHT22;39197;53.200;5.792;2023-02-28T08:23:13;2.60;99.90
53310;DHT22;39197;53.200;5.792;2023-02-28T08:25:39;2.70;99.90
53310;DHT22;39197;53.200;5.792;2023-02-28T08:28:05;2.70;99.90
53310;DHT22;39197;53.200;5.792;2023-02-28T08:30:30;2.80;99.90
53310;DHT22;39197;53.200;5.792;2023-02-28T08:32:56;2.70;99.90
53310;DHT22;39197;53.200;5.792;2023-02-28T08:35:22;2.80;99.90
53310;DHT22;39197;53.200;5.792;2023-02-28T08:37:48;2.70;99.90
53310;DHT22;39197;53.200;5.792;2023-02-28T08:40:15;2.80;99.90
53310;DHT22;39197;53.200;5.792;2023-02-28T08:42:46;2.90;99.90
53310;DHT22;39197;53.200;5.792;2023-02-28T08:45:14;2.90;99.90
53310;DHT22;39197;53.200;5.792;2023-02-28T08:47:40;2.90;99.90
53310;DHT22;39197;53.200;5.792;2023-02-28T08:50:06;2.90;99.90
53310;DHT22;39197;53.200;5.792;2023-02-28T08:52:31;3.00;99.90
53310;DHT22;39197;53.200;5.792;2023-02-28T08:54:57;3.00;99.90
53310;DHT22;39197;53.200;5.792;2023-02-28T08:57:23;3.00;99.90
53310;DHT22;39197;53.200;5.792;2023-02-28T08:59:48;3.00;99.90
53310;DHT22;39197;53.200;5.792;2023-02-28T09:02:14;3.00;99.90
53310;DHT22;39197;53.200;5.792;2023-02-28T09:04:40;3.10;99.90
53310;DHT22;39197;53.200;5.792;2023-02-28T09:07:07;3.10;99.90
53310;DHT22;39197;53.200;5.792;2023-02-28T09:09:32;3.10;99.90
53310;DHT22;39197;53.200;5.792;2023-02-28T09:11:58;3.20;99.90
53310;DHT22;39197;53.200;5.792;2023-02-28T09:14:24;3.20;99.90
53310;DHT22;39197;53.200;5.792;2023-02-28T09:16:50;3.20;99.90
53310;DHT22;39197;53.200;5.792;2023-02-28T09:19:15;3.30;99.90
53310;DHT22;39197;53.200;5.792;2023-02-28T09:21:41;3.30;99.90
53310;DHT22;39197;53.200;5.792;2023-02-28T09:24:07;3.30;99.90
53310;DHT22;39197;53.200;5.792;2023-02-28T09:26:33;3.40;99.90
53310;DHT22;39197;53.200;5.792;2023-02-28T09:28:59;3.50;99.90
53310;DHT22;39197;53.200;5.792;2023-02-28T09:31:27;3.40;99.90
53310;DHT22;39197;53.200;5.792;2023-02-28T09:33:55;3.50;99.90
53310;DHT22;39197;53.200;5.792;2023-02-28T09:36:22;3.50;99.90
53310;DHT22;39197;53.200;5.792;2023-02-28T09:38:48;3.60;99.90
53310;DHT22;39197;53.200;5.792;2023-02-28T09:41:22;3.90;99.90
53310;DHT22;39197;53.200;5.792;2023-02-28T09:43:59;4.10;99.90
53310;DHT22;39197;53.200;5.792;2023-02-28T09:46:30;4.20;99.90
53310;DHT22;39197;53.200;5.792;2023-02-28T09:49:00;4.40;99.90
53310;DHT22;39197;53.200;5.792;2023-02-28T09:54:18;4.30;99.90
53310;DHT22;39197;53.200;5.792;2023-02-28T09:56:48;4.30;99.90
53310;DHT22;39197;53.200;5.792;2023-02-28T09:59:56;4.40;99.90
53310;DHT22;39197;53.200;5.792;2023-02-28T10:05:52;4.30;99.90
53310;DHT22;39197;53.200;5.792;2023-02-28T10:08:28;4.30;99.90
53310;DHT22;39197;53.200;5.792;2023-02-28T10:11:03;4.40;99.90
53310;DHT22;39197;53.200;5.792;2023-02-28T10:13:33;4.50;99.90
53310;DHT22;39197;53.200;5.792;2023-02-28T10:16:08;4.70;99.90
53310;DHT22;39197;53.200;5.792;2023-02-28T10:18:46;4.80;99.90
53310;DHT22;39197;53.200;5.792;2023-02-28T10:21:39;5.00;99.90
53310;DHT22;39197;53.200;5.792;2023-02-28T10:26:45;5.40;99.90
53310;DHT22;39197;53.200;5.792;2023-02-28T10:29:11;5.70;99.90
53310;DHT22;39197;53.200;5.792;2023-02-28T10:31:38;5.80;99.90
53310;DHT22;39197;53.200;5.792;2023-02-28T10:34:04;5.90;99.90
53310;DHT22;39197;53.200;5.792;2023-02-28T10:36:31;6.10;99.90
53310;DHT22;39197;53.200;5.792;2023-02-28T10:38:57;6.10;99.90
53310;DHT22;39197;53.200;5.792;2023-02-28T10:41:32;6.60;99.90
53310;DHT22;39197;53.200;5.792;2023-02-28T10:46:43;7.70;99.90
53310;DHT22;39197;53.200;5.792;2023-02-28T10:49:28;8.00;99.90
53310;DHT22;39197;53.200;5.792;2023-02-28T10:51:57;8.90;99.90
53310;DHT22;39197;53.200;5.792;2023-02-28T10:54:34;9.30;99.90
53310;DHT22;39197;53.200;5.792;2023-02-28T10:57:23;9.80;99.90
53310;DHT22;39197;53.200;5.792;2023-02-28T11:00:18;10.40;99.90
53310;DHT22;39197;53.200;5.792;2023-02-28T11:02:44;10.50;99.90
53310;DHT22;39197;53.200;5.792;2023-02-28T11:05:32;10.10;99.90
53310;DHT22;39197;53.200;5.792;2023-02-28T11:10:31;9.50;99.90
53310;DHT22;39197;53.200;5.792;2023-02-28T11:13:00;9.30;99.90
53310;DHT22;39197;53.200;5.792;2023-02-28T11:15:30;8.70;99.90
53310;DHT22;39197;53.200;5.792;2023-02-28T11:18:15;8.50;99.90
53310;DHT22;39197;53.200;5.792;2023-02-28T11:20:50;8.30;99.90
53310;DHT22;39197;53.200;5.792;2023-02-28T11:23:18;8.50;99.90
53310;DHT22;39197;53.200;5.792;2023-02-28T11:25:51;9.00;99.90
53310;DHT22;39197;53.200;5.792;2023-02-28T11:28:36;10.20;99.90
53310;DHT22;39197;53.200;5.792;2023-02-28T11:31:05;11.20;99.90
53310;DHT22;39197;53.200;5.792;2023-02-28T11:36:35;12.50;99.90
53310;DHT22;39197;53.200;5.792;2023-02-28T11:39:12;12.40;99.90
53310;DHT22;39197;53.200;5.792;2023-02-28T11:44:30;11.40;99.90
53310;DHT22;39197;53.200;5.792;2023-02-28T11:53:05;12.30;99.90
53310;DHT22;39197;53.200;5.792;2023-02-28T12:01:12;13.30;99.90
53310;DHT22;39197;53.200;5.792;2023-02-28T12:09:53;14.30;99.90
53310;DHT22;39197;53.200;5.792;2023-02-28T12:15:51;12.70;99.90
53310;DHT22;39197;53.200;5.792;2023-02-28T12:21:08;12.90;99.90
53310;DHT22;39197;53.200;5.792;2023-02-28T12:24:05;13.60;99.90
53310;DHT22;39197;53.200;5.792;2023-02-28T12:26:40;13.20;99.90
53310;DHT22;39197;53.200;5.792;2023-02-28T12:29:26;13.10;99.90
53310;DHT22;39197;53.200;5.792;2023-02-28T12:32:06;13.50;99.90
53310;DHT22;39197;53.200;5.792;2023-02-28T12:34:43;12.90;99.90
53310;DHT22;39197;53.200;5.792;2023-02-28T12:37:17;12.80;99.90
53310;DHT22;39197;53.200;5.792;2023-02-28T12:39:48;12.30;99.90
53310;DHT22;39197;53.200;5.792;2023-02-28T12:42:24;11.20;99.90
53310;DHT22;39197;53.200;5.792;2023-02-28T12:44:58;11.00;99.90
53310;DHT22;39197;53.200;5.792;2023-02-28T12:47:24;10.80;99.90
53310;DHT22;39197;53.200;5.792;2023-02-28T12:50:06;10.90;99.90
53310;DHT22;39197;53.200;5.792;2023-02-28T12:55:42;10.90;99.90
53310;DHT22;39197;53.200;5.792;2023-02-28T12:58:14;10.90;99.90
53310;DHT22;39197;53.200;5.792;2023-02-28T13:09:09;10.10;99.90
53310;DHT22;39197;53.200;5.792;2023-02-28T13:14:48;11.00;99.90
53310;DHT22;39197;53.200;5.792;2023-02-28T13:17:23;12.30;99.90
53310;DHT22;39197;53.200;5.792;2023-02-28T13:24:57;12.30;99.90
53310;DHT22;39197;53.200;5.792;2023-02-28T13:27:41;11.80;99.90
53310;DHT22;39197;53.200;5.792;2023-02-28T13:33:37;11.50;99.90
53310;DHT22;39197;53.200;5.792;2023-02-28T13:36:27;11.00;99.90
53310;DHT22;39197;53.200;5.792;2023-02-28T13:39:01;11.20;99.90
53310;DHT22;39197;53.200;5.792;2023-02-28T13:44:07;10.60;99.90
53310;DHT22;39197;53.200;5.792;2023-02-28T13:49:31;10.20;99.90
53310;DHT22;39197;53.200;5.792;2023-02-28T14:02:54;11.30;99.90
53310;DHT22;39197;53.200;5.792;2023-02-28T14:05:32;11.70;99.90
53310;DHT22;39197;53.200;5.792;2023-02-28T14:08:01;12.10;99.90
53310;DHT22;39197;53.200;5.792;2023-02-28T14:10:40;12.00;99.90
53310;DHT22;39197;53.200;5.792;2023-02-28T14:16:14;12.20;99.90
53310;DHT22;39197;53.200;5.792;2023-02-28T14:19:12;12.20;99.90
53310;DHT22;39197;53.200;5.792;2023-02-28T14:24:59;12.90;99.90
53310;DHT22;39197;53.200;5.792;2023-02-28T14:27:56;12.90;99.90
53310;DHT22;39197;53.200;5.792;2023-02-28T14:36:34;13.20;99.90
53310;DHT22;39197;53.200;5.792;2023-02-28T14:39:06;13.30;99.90
53310;DHT22;39197;53.200;5.792;2023-02-28T14:41:40;13.80;99.90
53310;DHT22;39197;53.200;5.792;2023-02-28T14:44:24;13.90;99.90
53310;DHT22;39197;53.200;5.792;2023-02-28T14:46:53;14.00;99.90
53310;DHT22;39197;53.200;5.792;2023-02-28T14:49:25;12.60;99.90
53310;DHT22;39197;53.200;5.792;2023-02-28T14:52:02;12.60;99.90
53310;DHT22;39197;53.200;5.792;2023-02-28T14:54:28;13.50;99.90
53310;DHT22;39197;53.200;5.792;2023-02-28T14:56:54;14.20;99.90
53310;DHT22;39197;53.200;5.792;2023-02-28T14:59:32;14.80;99.80
53310;DHT22;39197;53.200;5.792;2023-02-28T15:02:24;14.20;99.40
53310;DHT22;39197;53.200;5.792;2023-02-28T15:04:56;14.20;99.50
53310;DHT22;39197;53.200;5.792;2023-02-28T15:07:23;14.20;98.30
53310;DHT22;39197;53.200;5.792;2023-02-28T15:10:26;13.70;99.40
53310;DHT22;39197;53.200;5.792;2023-02-28T15:12:59;13.90;98.20
53310;DHT22;39197;53.200;5.792;2023-02-28T15:15:48;13.90;99.40
53310;DHT22;39197;53.200;5.792;2023-02-28T15:18:52;14.00;99.30
53310;DHT22;39197;53.200;5.792;2023-02-28T15:21:16;14.30;98.50
53310;DHT22;39197;53.200;5.792;2023-02-28T15:23:46;14.40;98.80
53310;DHT22;39197;53.200;5.792;2023-02-28T15:26:15;14.40;99.10
53310;DHT22;39197;53.200;5.792;2023-02-28T15:28:42;13.80;98.70
53310;DHT22;39197;53.200;5.792;2023-02-28T15:31:27;13.40;99.70
53310;DHT22;39197;53.200;5.792;2023-02-28T15:33:56;13.40;98.40
53310;DHT22;39197;53.200;5.792;2023-02-28T15:36:26;13.30;99.10
53310;DHT22;39197;53.200;5.792;2023-02-28T15:38:53;12.70;99.90
53310;DHT22;39197;53.200;5.792;2023-02-28T15:41:28;12.70;99.90
53310;DHT22;39197;53.200;5.792;2023-02-28T15:44:18;12.20;99.90
53310;DHT22;39197;53.200;5.792;2023-02-28T15:46:59;12.20;99.90
53310;DHT22;39197;53.200;5.792;2023-02-28T15:49:27;11.60;99.90
53310;DHT22;39197;53.200;5.792;2023-02-28T15:51:57;11.80;99.90
53310;DHT22;39197;53.200;5.792;2023-02-28T15:54:30;11.40;99.90
53310;DHT22;39197;53.200;5.792;2023-02-28T15:57:03;11.00;99.90
53310;DHT22;39197;53.200;5.792;2023-02-28T15:59:30;11.20;99.90
53310;DHT22;39197;53.200;5.792;2023-02-28T16:04:29;10.80;99.90
53310;DHT22;39197;53.200;5.792;2023-02-28T16:07:01;10.40;99.90
53310;DHT22;39197;53.200;5.792;2023-02-28T16:09:27;10.40;99.90
53310;DHT22;39197;53.200;5.792;2023-02-28T16:11:56;10.90;99.90
53310;DHT22;39197;53.200;5.792;2023-02-28T16:14:24;10.20;99.90
53310;DHT22;39197;53.200;5.792;2023-02-28T16:16:55;10.00;99.90
53310;DHT22;39197;53.200;5.792;2023-02-28T16:19:22;10.20;99.90
53310;DHT22;39197;53.200;5.792;2023-02-28T16:21:48;9.70;99.90
53310;DHT22;39197;53.200;5.792;2023-02-28T16:24:14;9.70;99.90
53310;DHT22;39197;53.200;5.792;2023-02-28T16:26:46;9.20;99.90
53310;DHT22;39197;53.200;5.792;2023-02-28T16:29:23;9.10;99.90
53310;DHT22;39197;53.200;5.792;2023-02-28T16:31:49;8.90;99.90
53310;DHT22;39197;53.200;5.792;2023-02-28T16:34:15;8.60;99.90
53310;DHT22;39197;53.200;5.792;2023-02-28T16:36:40;8.50;99.90
53310;DHT22;39197;53.200;5.792;2023-02-28T16:39:06;8.40;99.90
53310;DHT22;39197;53.200;5.792;2023-02-28T16:41:33;8.40;99.90
53310;DHT22;39197;53.200;5.792;2023-02-28T16:43:59;8.10;99.90
53310;DHT22;39197;53.200;5.792;2023-02-28T16:46:34;8.00;99.90
53310;DHT22;39197;53.200;5.792;2023-02-28T16:49:00;7.90;99.90
53310;DHT22;39197;53.200;5.792;2023-02-28T16:51:26;7.80;99.90
53310;DHT22;39197;53.200;5.792;2023-02-28T16:53:52;7.70;99.90
53310;DHT22;39197;53.200;5.792;2023-02-28T16:56:22;7.70;99.90
53310;DHT22;39197;53.200;5.792;2023-02-28T16:58:50;7.60;99.90
53310;DHT22;39197;53.200;5.792;2023-02-28T17:01:17;7.50;99.90
53310;DHT22;39197;53.200;5.792;2023-02-28T17:03:50;7.40;99.90
53310;DHT22;39197;53.200;5.792;2023-02-28T17:06:19;7.20;99.90
53310;DHT22;39197;53.200;5.792;2023-02-28T17:08:45;7.10;99.90
53310;DHT22;39197;53.200;5.792;2023-02-28T17:11:11;7.00;99.90
53310;DHT22;39197;53.200;5.792;2023-02-28T17:13:37;7.00;99.90
53310;DHT22;39197;53.200;5.792;2023-02-28T17:16:02;6.90;99.90
53310;DHT22;39197;53.200;5.792;2023-02-28T17:18:28;6.80;99.90
53310;DHT22;39197;53.200;5.792;2023-02-28T17:20:59;6.80;99.90
53310;DHT22;39197;53.200;5.792;2023-02-28T17:23:25;6.70;99.90
53310;DHT22;39197;53.200;5.792;2023-02-28T17:25:51;6.50;99.90
53310;DHT22;39197;53.200;5.792;2023-02-28T17:28:22;6.60;99.90
53310;DHT22;39197;53.200;5.792;2023-02-28T17:30:48;6.50;99.90
53310;DHT22;39197;53.200;5.792;2023-02-28T17:33:15;6.50;99.90
53310;DHT22;39197;53.200;5.792;2023-02-28T17:35:40;6.30;99.90
53310;DHT22;39197;53.200;5.792;2023-02-28T17:38:17;6.20;99.90
53310;DHT22;39197;53.200;5.792;2023-02-28T17:40:44;6.10;99.90
53310;DHT22;39197;53.200;5.792;2023-02-28T17:43:10;6.10;99.90
53310;DHT22;39197;53.200;5.792;2023-02-28T17:45:36;6.00;99.90
53310;DHT22;39197;53.200;5.792;2023-02-28T17:48:02;6.00;99.90
53310;DHT22;39197;53.200;5.792;2023-02-28T17:50:28;5.90;99.90
53310;DHT22;39197;53.200;5.792;2023-02-28T17:52:54;5.90;99.90
53310;DHT22;39197;53.200;5.792;2023-02-28T17:55:19;5.80;99.90
53310;DHT22;39197;53.200;5.792;2023-02-28T17:57:45;5.80;99.90
53310;DHT22;39197;53.200;5.792;2023-02-28T18:00:12;5.70;99.90
53310;DHT22;39197;53.200;5.792;2023-02-28T18:02:38;5.70;99.90
53310;DHT22;39197;53.200;5.792;2023-02-28T18:05:05;5.60;99.90
53310;DHT22;39197;53.200;5.792;2023-02-28T18:07:30;5.60;99.90
53310;DHT22;39197;53.200;5.792;2023-02-28T18:09:56;5.50;99.90